Cloquet, Minnesota
Current Conditions -  °F | °C
As of 4:56 PM on Monday 24 Nov 2014 (Local Time) from KCOQ Reporting Station
Overcast Overcast  
Wind Chill:   Ceiling: 2400
Heat Index: 18°   Visibility: 10mi
Dew Point: 12°   Wind: 14mph
Humidity: 79%   Direction: 330°NNW
Pressure: 29.6"   Gusts: 31mph
Location:  46.71°N, 92.48°W
Report Text: KCOQ 242256Z AUTO 33012G27KT 10SM BKN024 OVC080 M08/M11 A2960 RMK AO2
Loading
Personal Weather Stations






























Interactive Weather Map New forecast layout! Learn more

10-Day Weather Forecast

Advertisements
Track Severe Weather on mobile